Dwiggins, Mississippi
Current Conditions -  °F | °C
As of 5:55 AM on Wednesday 28 Jan 2015 (Local Time) from KRNV Reporting Station
Clear Clear  
Wind Chill: 34°   Ceiling: Unl
Heat Index: 38°   Visibility: 10mi
Dew Point: 35°   Wind: 5mph
Humidity: 89%   Direction: 110°ESE
Pressure: 30.25"   Gusts: NA
Location:  33.8731°N, 90.5512°W
Report Text: KRNV 281155Z AUTO 11004KT 10SM CLR 03/02 A3025 RMK AO2 T00320015 10064 20026
Loading
Personal Weather Stations






























Interactive Weather Map New forecast layout! Learn more

10-Day Weather Forecast

Advertisements
Track Severe Weather on mobile